Time;durP1;ratioP1;P1;durP2;ratioP2;P2;SDS_P1;SDS_P2;PMS_P1;PMS_P2;Temp;Humidity;BMP_temperature;BMP_pressure;BME280_temperature;BME280_humidity;BME280_pressure;Samples;Min_cycle;Max_cycle;Signal;HPM_P1;HPM_P2
2022/05/21 00:00:22;;;;;;;4.97;1.90;;;;;;;;;;5002006;28;20046;-70
2022/05/21 00:02:49;;;;;;;6.25;1.88;;;;;;;;;;5004397;28;20045;-70
2022/05/21 00:05:16;;;;;;;6.47;2.17;;;;;;;;;;5005064;28;20037;-70
2022/05/21 00:07:42;;;;;;;4.18;2.08;;;;;;;;;;5009777;28;20117;-70
2022/05/21 00:10:09;;;;;;;10.55;2.28;;;;;;;;;;5007037;28;20037;-69
2022/05/21 00:12:35;;;;;;;4.60;1.92;;;;;;;;;;5006055;28;20041;-70
2022/05/21 00:15:00;;;;;;;6.25;2.22;;;;;;;;;;5009394;28;20038;-70
2022/05/21 00:17:25;;;;;;;5.22;2.25;;;;;;;;;;5005478;28;20034;-70
2022/05/21 00:19:51;;;;;;;3.72;1.90;;;;;;;;;;5008042;28;20104;-70
2022/05/21 00:22:16;;;;;;;6.22;2.50;;;;;;;;;;5006286;28;20050;-70
2022/05/21 00:24:42;;;;;;;3.65;2.20;;;;;;;;;;5007955;28;20066;-69
2022/05/21 00:27:07;;;;;;;3.15;2.03;;;;;;;;;;5004604;28;20592;-70
2022/05/21 00:29:34;;;;;;;4.97;2.22;;;;;;;;;;5007273;28;20050;-69
2022/05/21 00:31:59;;;;;;;5.60;2.03;;;;;;;;;;5006971;28;20034;-70
2022/05/21 00:34:24;;;;;;;5.93;2.30;;;;;;;;;;5004077;28;20041;-70
2022/05/21 00:36:50;;;;;;;5.65;2.20;;;;;;;;;;5006378;28;20049;-70
2022/05/21 00:39:16;;;;;;;7.53;2.15;;;;;;;;;;5009359;28;20037;-70
2022/05/21 00:41:42;;;;;;;6.30;2.10;;;;;;;;;;5005302;28;20038;-70
2022/05/21 00:44:08;;;;;;;6.57;1.98;;;;;;;;;;5015525;28;20094;-70
2022/05/21 00:46:37;;;;;;;4.50;1.92;;;;;;;;;;5006901;28;20045;-69
2022/05/21 00:49:07;;;;;;;4.60;2.10;;;;;;;;;;5006776;28;20045;-70
2022/05/21 00:51:38;;;;;;;4.50;1.90;;;;;;;;;;4994209;28;20046;-70
2022/05/21 00:54:05;;;;;;;4.57;1.95;;;;;;;;;;5006038;28;20511;-70
2022/05/21 00:56:34;;;;;;;4.18;2.00;;;;;;;;;;5006989;28;20045;-69
2022/05/21 01:01:49;;;;;;;9.68;2.60;;;;;;;;;;5004235;28;20088;-70
2022/05/21 01:04:14;;;;;;;6.93;2.47;;;;;;;;;;5005582;28;20108;-70
2022/05/21 01:06:40;;;;;;;4.85;2.47;;;;;;;;;;5004477;28;20042;-70
2022/05/21 01:09:06;;;;;;;7.88;2.38;;;;;;;;;;5004372;28;20216;-70
2022/05/21 01:11:32;;;;;;;6.03;2.58;;;;;;;;;;5007182;28;20033;-69
2022/05/21 01:13:58;;;;;;;4.03;2.15;;;;;;;;;;5006651;28;20096;-70
2022/05/21 01:16:24;;;;;;;3.38;1.77;;;;;;;;;;5006150;28;20046;-70
2022/05/21 01:18:50;;;;;;;6.38;2.40;;;;;;;;;;5005483;28;20033;-70
2022/05/21 01:21:15;;;;;;;6.95;2.00;;;;;;;;;;5006694;28;20645;-70
2022/05/21 01:23:40;;;;;;;4.60;1.75;;;;;;;;;;5004386;28;20032;-70
2022/05/21 01:26:17;;;;;;;4.38;1.70;;;;;;;;;;5006965;28;20029;-70
2022/05/21 01:28:43;;;;;;;7.50;2.60;;;;;;;;;;5005696;28;20050;-70
2022/05/21 01:31:09;;;;;;;3.50;2.00;;;;;;;;;;5006847;28;20152;-70
2022/05/21 01:33:38;;;;;;;6.22;2.60;;;;;;;;;;5004673;28;20096;-70
2022/05/21 01:36:06;;;;;;;5.57;2.30;;;;;;;;;;5005771;28;20073;-70
2022/05/21 01:38:32;;;;;;;5.72;2.30;;;;;;;;;;5005294;28;20467;-69
2022/05/21 01:40:58;;;;;;;8.15;2.10;;;;;;;;;;4999678;28;20046;-70
2022/05/21 01:46:09;;;;;;;8.63;2.10;;;;;;;;;;5006369;28;20041;-70
2022/05/21 01:48:34;;;;;;;6.65;2.30;;;;;;;;;;5004258;28;20049;-70
2022/05/21 01:51:00;;;;;;;5.70;2.38;;;;;;;;;;5006579;28;20057;-70
2022/05/21 01:53:27;;;;;;;6.40;2.65;;;;;;;;;;5001141;28;20643;-69
2022/05/21 01:55:53;;;;;;;6.97;2.20;;;;;;;;;;5007690;28;20619;-70
2022/05/21 01:58:19;;;;;;;4.93;1.85;;;;;;;;;;5004347;28;20045;-70
2022/05/21 02:00:45;;;;;;;3.78;1.88;;;;;;;;;;5006176;28;20042;-70
2022/05/21 02:03:12;;;;;;;8.63;2.30;;;;;;;;;;5006129;28;20042;-70
2022/05/21 02:05:38;;;;;;;7.38;2.13;;;;;;;;;;5007033;28;20106;-70
2022/05/21 02:08:04;;;;;;;7.70;2.13;;;;;;;;;;5006916;28;20109;-70
2022/05/21 02:10:30;;;;;;;6.95;2.38;;;;;;;;;;5006475;28;20030;-69
2022/05/21 02:12:55;;;;;;;6.82;1.90;;;;;;;;;;5004364;28;20041;-69
2022/05/21 02:15:21;;;;;;;4.30;2.30;;;;;;;;;;5005230;28;20046;-70
2022/05/21 02:17:46;;;;;;;4.88;2.03;;;;;;;;;;5004257;28;20036;-69
2022/05/21 02:20:11;;;;;;;5.55;2.58;;;;;;;;;;5007930;28;20515;-70
2022/05/21 02:22:37;;;;;;;5.65;1.85;;;;;;;;;;5005041;28;20581;-70
2022/05/21 02:25:04;;;;;;;7.38;1.85;;;;;;;;;;5004305;28;20511;-70
2022/05/21 02:27:29;;;;;;;6.57;2.05;;;;;;;;;;5004184;28;20151;-70
2022/05/21 02:29:54;;;;;;;7.43;2.25;;;;;;;;;;5004778;28;20066;-70
2022/05/21 02:32:20;;;;;;;5.90;2.10;;;;;;;;;;5005562;28;20392;-70
2022/05/21 02:34:45;;;;;;;6.53;2.00;;;;;;;;;;5003933;28;20034;-70
2022/05/21 02:39:54;;;;;;;3.15;1.90;;;;;;;;;;5002282;28;20076;-69
2022/05/21 02:45:04;;;;;;;6.13;2.13;;;;;;;;;;5005797;28;20049;-70
2022/05/21 02:47:31;;;;;;;7.80;2.10;;;;;;;;;;5003779;28;20017;-70
2022/05/21 02:49:56;;;;;;;6.53;2.28;;;;;;;;;;5003512;28;20471;-70
2022/05/21 02:52:22;;;;;;;6.88;2.20;;;;;;;;;;5005386;28;20046;-70
2022/05/21 02:54:47;;;;;;;5.93;2.08;;;;;;;;;;5005461;28;20042;-70
2022/05/21 02:57:12;;;;;;;6.43;2.28;;;;;;;;;;5005824;28;20124;-70
2022/05/21 02:59:39;;;;;;;7.53;2.55;;;;;;;;;;5005305;28;20025;-70
2022/05/21 03:02:05;;;;;;;7.88;2.50;;;;;;;;;;5004175;28;20057;-70
2022/05/21 03:04:31;;;;;;;6.78;2.38;;;;;;;;;;4999497;28;20034;-70
2022/05/21 03:06:57;;;;;;;8.40;2.92;;;;;;;;;;5005226;28;20404;-70
2022/05/21 03:12:08;;;;;;;8.60;2.42;;;;;;;;;;5004161;28;20044;-70
2022/05/21 03:14:34;;;;;;;7.57;2.28;;;;;;;;;;5006240;28;20052;-70
2022/05/21 03:16:59;;;;;;;6.03;1.88;;;;;;;;;;5005811;28;20026;-70
2022/05/21 03:19:35;;;;;;;8.93;3.08;;;;;;;;;;5000941;28;20038;-69
2022/05/21 03:22:01;;;;;;;5.32;2.10;;;;;;;;;;5005010;28;20101;-69
2022/05/21 03:24:27;;;;;;;8.63;2.42;;;;;;;;;;5006131;28;20030;-70
2022/05/21 03:26:53;;;;;;;8.40;2.47;;;;;;;;;;5004111;28;20041;-70
2022/05/21 03:29:19;;;;;;;7.70;2.88;;;;;;;;;;5005674;28;20046;-70
2022/05/21 03:31:45;;;;;;;6.28;2.65;;;;;;;;;;5004824;28;20047;-70
2022/05/21 03:34:10;;;;;;;8.50;2.45;;;;;;;;;;4998864;28;20046;-69
2022/05/21 03:36:36;;;;;;;6.15;2.30;;;;;;;;;;5018684;28;20030;-70
2022/05/21 03:39:02;;;;;;;5.63;2.67;;;;;;;;;;5008732;28;20072;-70
2022/05/21 03:41:27;;;;;;;7.10;3.47;;;;;;;;;;5009298;28;20050;-70
2022/05/21 03:43:54;;;;;;;7.97;2.80;;;;;;;;;;5007546;28;20030;-70
2022/05/21 03:46:19;;;;;;;8.88;2.58;;;;;;;;;;5007062;28;20049;-70
2022/05/21 03:48:45;;;;;;;13.23;2.95;;;;;;;;;;5005662;28;20038;-70
2022/05/21 03:51:11;;;;;;;12.18;3.08;;;;;;;;;;5007109;28;20049;-70
2022/05/21 03:53:36;;;;;;;9.90;3.05;;;;;;;;;;5009011;28;20033;-70
2022/05/21 03:56:03;;;;;;;7.13;2.75;;;;;;;;;;5009874;28;20026;-70
2022/05/21 03:58:29;;;;;;;12.00;2.90;;;;;;;;;;5008562;28;20049;-70
2022/05/21 04:00:54;;;;;;;10.38;3.30;;;;;;;;;;5008422;28;20038;-70
2022/05/21 04:03:19;;;;;;;8.30;2.72;;;;;;;;;;5003136;28;20123;-70
2022/05/21 04:05:45;;;;;;;8.70;2.70;;;;;;;;;;5006867;28;20033;-69
2022/05/21 04:08:11;;;;;;;8.45;3.35;;;;;;;;;;5008196;28;20053;-70
2022/05/21 04:10:36;;;;;;;9.15;2.92;;;;;;;;;;5008993;28;20034;-70
2022/05/21 04:13:01;;;;;;;11.65;2.92;;;;;;;;;;5007070;28;20091;-70
2022/05/21 04:15:27;;;;;;;13.32;3.35;;;;;;;;;;5008175;28;20030;-70
2022/05/21 04:17:56;;;;;;;10.50;3.10;;;;;;;;;;5023235;28;20052;-70
2022/05/21 04:20:23;;;;;;;10.68;2.78;;;;;;;;;;5009429;28;20033;-70
2022/05/21 04:22:49;;;;;;;13.80;3.40;;;;;;;;;;5005966;28;20042;-70
2022/05/21 04:25:15;;;;;;;9.98;3.08;;;;;;;;;;5004512;28;20049;-70
2022/05/21 04:27:41;;;;;;;11.35;3.25;;;;;;;;;;5008258;28;20038;-70
2022/05/21 04:30:14;;;;;;;8.00;2.92;;;;;;;;;;5007162;28;20444;-69
2022/05/21 04:32:39;;;;;;;11.77;3.22;;;;;;;;;;5008274;28;20057;-69
2022/05/21 04:35:06;;;;;;;5.25;2.97;;;;;;;;;;5007803;28;20111;-70
2022/05/21 04:37:31;;;;;;;7.53;2.13;;;;;;;;;;5006990;28;20037;-70
2022/05/21 04:39:56;;;;;;;7.38;2.55;;;;;;;;;;5001581;28;20046;-70
2022/05/21 04:42:22;;;;;;;6.65;2.70;;;;;;;;;;5004182;28;20050;-70
2022/05/21 04:44:47;;;;;;;9.02;3.25;;;;;;;;;;5008577;28;20018;-70
2022/05/21 04:47:12;;;;;;;10.57;3.00;;;;;;;;;;5006994;28;20105;-70
2022/05/21 04:49:38;;;;;;;8.98;2.58;;;;;;;;;;5007265;28;20077;-70
2022/05/21 04:52:04;;;;;;;8.20;3.10;;;;;;;;;;5002234;28;20113;-70
2022/05/21 04:54:30;;;;;;;10.15;2.78;;;;;;;;;;4996693;28;20158;-70
2022/05/21 04:56:56;;;;;;;8.88;2.90;;;;;;;;;;4994841;28;20487;-70
2022/05/21 04:59:21;;;;;;;16.48;3.60;;;;;;;;;;4997455;28;20571;-70
2022/05/21 05:01:46;;;;;;;7.18;3.05;;;;;;;;;;4995927;28;20033;-70
2022/05/21 05:04:12;;;;;;;10.18;2.85;;;;;;;;;;4996921;28;20044;-70
2022/05/21 05:06:38;;;;;;;7.32;2.55;;;;;;;;;;4998407;28;20053;-70
2022/05/21 05:09:08;;;;;;;11.68;4.15;;;;;;;;;;4997185;28;20048;-70
2022/05/21 05:11:33;;;;;;;10.50;2.72;;;;;;;;;;4997549;28;20141;-70
2022/05/21 05:13:59;;;;;;;7.00;2.33;;;;;;;;;;4996370;28;20121;-70
2022/05/21 05:16:24;;;;;;;15.85;2.92;;;;;;;;;;4996158;28;20034;-70
2022/05/21 05:18:50;;;;;;;8.60;3.10;;;;;;;;;;4995902;28;20033;-69
2022/05/21 05:21:15;;;;;;;12.65;3.08;;;;;;;;;;4993570;28;20041;-69
2022/05/21 05:23:40;;;;;;;10.38;3.10;;;;;;;;;;4996858;28;20022;-69
2022/05/21 05:26:05;;;;;;;8.88;2.88;;;;;;;;;;4995527;28;20017;-70
2022/05/21 05:28:31;;;;;;;7.18;2.97;;;;;;;;;;4996412;28;20177;-70
2022/05/21 05:30:56;;;;;;;9.15;2.58;;;;;;;;;;4994754;28;20038;-69
2022/05/21 05:33:23;;;;;;;12.15;3.08;;;;;;;;;;4996609;28;20108;-70
2022/05/21 05:35:50;;;;;;;9.90;2.78;;;;;;;;;;4995087;28;20038;-70
2022/05/21 05:38:16;;;;;;;10.10;2.88;;;;;;;;;;4995254;28;20937;-70
2022/05/21 05:40:45;;;;;;;12.90;3.40;;;;;;;;;;4996192;28;20037;-69
2022/05/21 05:43:11;;;;;;;6.32;2.95;;;;;;;;;;4995865;28;20050;-69
2022/05/21 05:45:36;;;;;;;12.23;3.75;;;;;;;;;;5005929;28;20609;-69
2022/05/21 05:48:01;;;;;;;9.77;2.85;;;;;;;;;;4999736;28;20123;-70
2022/05/21 05:50:27;;;;;;;9.55;2.92;;;;;;;;;;4995252;28;20096;-69
2022/05/21 05:52:52;;;;;;;10.13;3.30;;;;;;;;;;4998796;28;20047;-70
2022/05/21 05:55:18;;;;;;;11.05;2.90;;;;;;;;;;4995571;28;20034;-69
2022/05/21 05:57:43;;;;;;;8.15;3.00;;;;;;;;;;4995842;28;20038;-70
2022/05/21 06:00:09;;;;;;;10.38;2.75;;;;;;;;;;4994055;28;20064;-70
2022/05/21 06:05:22;;;;;;;9.50;3.40;;;;;;;;;;5000885;28;20037;-70
2022/05/21 06:07:51;;;;;;;9.73;3.22;;;;;;;;;;4992760;28;20064;-70
2022/05/21 06:10:23;;;;;;;12.20;4.15;;;;;;;;;;4996300;28;20839;-70
2022/05/21 06:12:48;;;;;;;9.70;3.25;;;;;;;;;;5000560;28;20046;-70
2022/05/21 06:15:14;;;;;;;19.23;4.30;;;;;;;;;;5004273;28;20037;-70
2022/05/21 06:17:40;;;;;;;16.90;3.70;;;;;;;;;;5002935;28;20568;-70
2022/05/21 06:20:08;;;;;;;6.10;3.17;;;;;;;;;;5004186;28;20104;-70
2022/05/21 06:22:33;;;;;;;9.80;2.85;;;;;;;;;;4994855;28;20088;-70
2022/05/21 06:25:03;;;;;;;12.73;4.10;;;;;;;;;;4999094;28;20045;-69
2022/05/21 06:27:28;;;;;;;11.18;3.20;;;;;;;;;;5001307;28;20423;-70
2022/05/21 06:29:53;;;;;;;15.73;4.30;;;;;;;;;;5001491;28;20046;-70
2022/05/21 06:32:19;;;;;;;11.82;3.30;;;;;;;;;;5000083;28;20026;-70
2022/05/21 06:34:45;;;;;;;12.65;4.35;;;;;;;;;;4997936;28;20044;-69
2022/05/21 06:37:12;;;;;;;8.77;3.35;;;;;;;;;;4996220;28;20157;-69
2022/05/21 06:39:39;;;;;;;9.07;3.45;;;;;;;;;;4994200;28;20046;-70
2022/05/21 06:42:05;;;;;;;7.53;2.90;;;;;;;;;;4997287;28;20451;-70
2022/05/21 06:44:30;;;;;;;17.85;3.80;;;;;;;;;;4998638;28;20034;-69
2022/05/21 06:46:56;;;;;;;8.75;2.95;;;;;;;;;;5000270;28;20045;-70
2022/05/21 06:49:23;;;;;;;14.20;3.22;;;;;;;;;;4998385;28;20080;-70
2022/05/21 06:51:52;;;;;;;8.38;3.13;;;;;;;;;;5000741;28;20119;-70
2022/05/21 06:54:17;;;;;;;10.32;3.90;;;;;;;;;;5013078;28;20053;-69
2022/05/21 06:56:43;;;;;;;14.85;3.00;;;;;;;;;;4996046;28;20038;-70
2022/05/21 06:59:08;;;;;;;13.98;3.65;;;;;;;;;;4996466;28;20064;-70
2022/05/21 07:01:33;;;;;;;13.38;3.55;;;;;;;;;;4997040;28;20038;-69
2022/05/21 07:03:59;;;;;;;12.45;2.80;;;;;;;;;;5002905;28;20045;-69
2022/05/21 07:09:08;;;;;;;9.15;3.33;;;;;;;;;;5002666;28;20136;-70
2022/05/21 07:11:33;;;;;;;11.80;3.20;;;;;;;;;;4999830;28;20050;-70
2022/05/21 07:13:59;;;;;;;10.07;3.00;;;;;;;;;;4992095;28;20044;-70
2022/05/21 07:16:25;;;;;;;12.95;2.85;;;;;;;;;;5000882;28;20042;-69
2022/05/21 07:18:50;;;;;;;13.57;3.03;;;;;;;;;;5003112;28;20088;-70
2022/05/21 07:21:18;;;;;;;11.32;2.70;;;;;;;;;;5000245;28;20041;-70
2022/05/21 07:23:44;;;;;;;12.50;2.80;;;;;;;;;;5000527;28;20056;-70
2022/05/21 07:26:11;;;;;;;9.48;2.60;;;;;;;;;;5002346;28;20416;-70
2022/05/21 07:28:36;;;;;;;10.98;3.10;;;;;;;;;;5004596;28;20050;-70
2022/05/21 07:31:02;;;;;;;11.27;2.70;;;;;;;;;;5005574;28;20119;-69
2022/05/21 07:33:27;;;;;;;6.47;2.38;;;;;;;;;;5001578;28;20049;-70
2022/05/21 07:35:52;;;;;;;6.20;2.35;;;;;;;;;;5002035;28;20038;-70
2022/05/21 07:38:18;;;;;;;5.65;2.28;;;;;;;;;;5000807;28;20025;-70
2022/05/21 07:40:45;;;;;;;12.10;2.90;;;;;;;;;;5001232;28;20145;-70
2022/05/21 07:43:27;;;;;;;14.00;2.88;;;;;;;;;;4999501;28;20077;-69
2022/05/21 07:45:54;;;;;;;8.25;2.90;;;;;;;;;;5016115;28;20052;-70
2022/05/21 07:48:21;;;;;;;12.00;2.80;;;;;;;;;;5000730;28;20626;-69
2022/05/21 07:50:51;;;;;;;12.52;2.90;;;;;;;;;;4998635;28;20038;-70
2022/05/21 07:53:22;;;;;;;11.02;3.83;;;;;;;;;;5000977;28;20122;-70
2022/05/21 07:55:50;;;;;;;11.98;3.00;;;;;;;;;;5003454;28;20033;-70
2022/05/21 07:58:17;;;;;;;12.40;4.15;;;;;;;;;;5015727;28;20546;-70
2022/05/21 08:00:43;;;;;;;7.65;4.03;;;;;;;;;;5001842;28;20049;-70
2022/05/21 08:03:09;;;;;;;15.48;6.38;;;;;;;;;;5005637;28;20066;-70
2022/05/21 08:05:38;;;;;;;13.60;3.78;;;;;;;;;;4999317;28;20097;-70
2022/05/21 08:08:05;;;;;;;8.85;3.33;;;;;;;;;;4997652;28;20030;-70
2022/05/21 08:10:30;;;;;;;16.35;3.83;;;;;;;;;;5000022;28;20053;-70
2022/05/21 08:12:56;;;;;;;8.13;3.25;;;;;;;;;;4999057;28;20040;-70
2022/05/21 08:15:22;;;;;;;11.18;3.55;;;;;;;;;;4998114;28;20531;-69
2022/05/21 08:17:48;;;;;;;12.90;3.05;;;;;;;;;;4999480;28;20061;-69
2022/05/21 08:20:15;;;;;;;14.57;4.30;;;;;;;;;;4999255;28;20026;-69
2022/05/21 08:28:13;;;;;;;9.43;2.95;;;;;;;;;;4996039;28;20580;-68
2022/05/21 08:30:38;;;;;;;6.88;2.60;;;;;;;;;;4995668;28;20052;-68
2022/05/21 08:33:06;;;;;;;4.80;2.55;;;;;;;;;;4997177;28;20669;-69
2022/05/21 08:35:33;;;;;;;15.35;3.72;;;;;;;;;;4996865;28;20034;-68
2022/05/21 08:37:59;;;;;;;11.23;3.58;;;;;;;;;;4993125;28;20476;-69
2022/05/21 08:40:40;;;;;;;7.72;2.90;;;;;;;;;;4995303;28;20684;-69
2022/05/21 08:43:29;;;;;;;10.90;3.00;;;;;;;;;;4991593;28;20188;-68
2022/05/21 08:46:00;;;;;;;8.25;3.40;;;;;;;;;;4995238;28;20077;-68
2022/05/21 08:48:31;;;;;;;12.32;2.90;;;;;;;;;;4997791;28;20408;-69
2022/05/21 08:50:56;;;;;;;12.25;3.35;;;;;;;;;;4996393;28;21964;-69
2022/05/21 08:53:25;;;;;;;10.05;2.67;;;;;;;;;;4997343;28;20042;-69
2022/05/21 08:55:54;;;;;;;10.60;3.70;;;;;;;;;;4997046;28;20570;-69
2022/05/21 08:58:43;;;;;;;13.18;3.53;;;;;;;;;;4996206;28;20038;-69
2022/05/21 09:01:10;;;;;;;11.88;3.00;;;;;;;;;;4994905;28;20111;-68
2022/05/21 09:03:35;;;;;;;12.85;3.60;;;;;;;;;;5003988;28;20153;-69
2022/05/21 09:06:16;;;;;;;6.78;3.38;;;;;;;;;;5005537;28;20120;-69
2022/05/21 09:09:03;;;;;;;9.63;3.65;;;;;;;;;;5005748;28;20047;-69
2022/05/21 09:11:48;;;;;;;6.60;3.33;;;;;;;;;;5006764;28;20065;-69
2022/05/21 09:14:36;;;;;;;13.13;4.50;;;;;;;;;;5005925;28;20050;-69
2022/05/21 09:17:08;;;;;;;15.68;4.75;;;;;;;;;;5003545;28;20050;-69
2022/05/21 09:19:37;;;;;;;14.48;4.85;;;;;;;;;;5003284;28;20054;-70
2022/05/21 09:22:15;;;;;;;10.10;4.18;;;;;;;;;;5003241;28;20057;-69
2022/05/21 09:24:45;;;;;;;11.05;3.90;;;;;;;;;;5005687;28;20092;-69
2022/05/21 09:27:34;;;;;;;11.43;3.78;;;;;;;;;;5005908;28;20081;-69
2022/05/21 09:30:26;;;;;;;11.48;3.53;;;;;;;;;;5004614;28;20062;-69
2022/05/21 09:33:01;;;;;;;5.65;2.70;;;;;;;;;;5004333;28;20538;-69
2022/05/21 09:35:31;;;;;;;6.93;3.55;;;;;;;;;;5003815;28;20022;-69
2022/05/21 09:38:12;;;;;;;8.98;4.40;;;;;;;;;;5006763;28;20038;-69
2022/05/21 09:40:39;;;;;;;10.30;3.88;;;;;;;;;;5005359;28;20141;-69
2022/05/21 09:46:15;;;;;;;7.82;3.60;;;;;;;;;;5006251;28;20108;-69
2022/05/21 09:48:41;;;;;;;7.90;2.92;;;;;;;;;;5005124;28;20060;-69
2022/05/21 09:51:20;;;;;;;7.22;2.97;;;;;;;;;;5005427;28;20594;-69
2022/05/21 09:53:46;;;;;;;6.68;3.10;;;;;;;;;;5005443;28;20026;-69
2022/05/21 09:56:31;;;;;;;7.80;2.70;;;;;;;;;;5008379;28;20080;-69
2022/05/21 09:59:16;;;;;;;4.85;2.35;;;;;;;;;;5006544;28;20052;-70
2022/05/21 10:01:46;;;;;;;6.50;2.42;;;;;;;;;;5006759;28;20515;-69
2022/05/21 10:04:24;;;;;;;6.60;2.13;;;;;;;;;;5002000;28;20046;-69
2022/05/21 10:07:07;;;;;;;6.53;2.20;;;;;;;;;;5017302;28;20038;-69
2022/05/21 10:12:28;;;;;;;4.15;2.22;;;;;;;;;;5005633;28;20004;-70
2022/05/21 10:15:05;;;;;;;7.03;2.35;;;;;;;;;;4994818;28;20418;-69
2022/05/21 10:17:38;;;;;;;7.03;2.85;;;;;;;;;;5003678;28;20061;-68
2022/05/21 10:20:20;;;;;;;7.18;2.83;;;;;;;;;;4999702;28;20065;-69
2022/05/21 10:23:14;;;;;;;6.72;2.60;;;;;;;;;;5004832;28;20042;-69
2022/05/21 10:25:42;;;;;;;7.28;2.38;;;;;;;;;;5000464;28;20038;-69
2022/05/21 10:28:11;;;;;;;4.78;2.10;;;;;;;;;;5000017;28;20041;-69
2022/05/21 10:30:57;;;;;;;4.15;1.80;;;;;;;;;;5006116;28;20675;-69
2022/05/21 10:33:36;;;;;;;5.95;2.30;;;;;;;;;;5009143;28;20044;-69
2022/05/21 10:36:08;;;;;;;8.50;2.70;;;;;;;;;;4999100;28;20411;-69
2022/05/21 10:39:03;;;;;;;8.77;2.20;;;;;;;;;;5005458;28;20034;-69
2022/05/21 10:41:34;;;;;;;5.88;2.50;;;;;;;;;;5003706;28;20140;-69
2022/05/21 10:44:55;;;;;;;6.43;2.90;;;;;;;;;;5000339;28;20042;-69
2022/05/21 10:47:50;;;;;;;5.68;1.85;;;;;;;;;;5001962;28;20523;-69
2022/05/21 10:50:31;;;;;;;9.32;2.58;;;;;;;;;;4999507;28;20097;-70
2022/05/21 10:53:21;;;;;;;5.78;2.03;;;;;;;;;;5020861;28;20045;-69
2022/05/21 10:55:58;;;;;;;7.18;2.17;;;;;;;;;;5005763;28;20053;-70
2022/05/21 10:58:41;;;;;;;9.73;2.60;;;;;;;;;;5005106;28;20111;-69
2022/05/21 11:01:35;;;;;;;3.60;2.20;;;;;;;;;;4998988;28;20120;-69
2022/05/21 11:04:30;;;;;;;8.63;2.20;;;;;;;;;;5005459;28;20038;-70
2022/05/21 11:07:29;;;;;;;8.20;2.08;;;;;;;;;;4999606;28;20121;-70
2022/05/21 11:10:18;;;;;;;5.45;2.08;;;;;;;;;;5005033;28;20045;-70
2022/05/21 11:12:50;;;;;;;5.13;2.58;;;;;;;;;;5001056;28;20042;-70
2022/05/21 11:15:22;;;;;;;5.50;2.63;;;;;;;;;;5001060;28;20526;-70
2022/05/21 11:17:54;;;;;;;7.05;2.50;;;;;;;;;;4999839;28;20084;-70
2022/05/21 11:20:24;;;;;;;9.38;2.72;;;;;;;;;;5006026;28;20022;-70
2022/05/21 11:23:11;;;;;;;6.38;2.20;;;;;;;;;;5005567;28;20034;-69
2022/05/21 11:26:02;;;;;;;7.88;2.45;;;;;;;;;;4995386;28;20038;-69
2022/05/21 11:28:43;;;;;;;7.47;2.30;;;;;;;;;;4999624;28;20046;-69
2022/05/21 11:39:44;;;;;;;6.95;2.00;;;;;;;;;;4998990;28;20057;-69
2022/05/21 11:42:14;;;;;;;11.88;2.72;;;;;;;;;;5004287;28;20462;-69
2022/05/21 11:44:57;;;;;;;5.82;1.65;;;;;;;;;;5004370;28;20041;-70
2022/05/21 11:47:22;;;;;;;7.05;2.00;;;;;;;;;;5005791;28;20026;-69
2022/05/21 11:50:00;;;;;;;5.43;2.30;;;;;;;;;;5005601;28;20042;-69
2022/05/21 11:52:28;;;;;;;6.20;2.22;;;;;;;;;;5004870;28;20038;-69
2022/05/21 11:54:53;;;;;;;16.40;2.80;;;;;;;;;;5000970;28;20062;-69
2022/05/21 11:57:38;;;;;;;9.23;2.95;;;;;;;;;;5002608;28;20061;-69
2022/05/21 12:00:17;;;;;;;6.00;2.72;;;;;;;;;;5001225;28;20042;-69
2022/05/21 12:02:54;;;;;;;6.60;2.40;;;;;;;;;;5003385;28;20477;-69
2022/05/21 12:05:35;;;;;;;10.95;3.20;;;;;;;;;;5007333;28;20037;-69
2022/05/21 12:08:23;;;;;;;7.00;2.10;;;;;;;;;;5005880;28;20049;-69
2022/05/21 12:10:57;;;;;;;6.18;2.67;;;;;;;;;;4999800;28;20069;-69
2022/05/21 12:13:34;;;;;;;6.30;2.53;;;;;;;;;;5006211;28;20040;-70
2022/05/21 12:16:02;;;;;;;7.38;2.85;;;;;;;;;;5003203;28;20061;-69
2022/05/21 12:18:38;;;;;;;6.85;2.67;;;;;;;;;;4996647;28;20592;-69
2022/05/21 12:21:13;;;;;;;5.93;2.25;;;;;;;;;;4997538;28;20034;-68
2022/05/21 12:23:41;;;;;;;5.70;1.92;;;;;;;;;;5002751;28;20082;-69
2022/05/21 12:26:13;;;;;;;5.85;2.20;;;;;;;;;;5002167;28;20458;-69
2022/05/21 12:29:06;;;;;;;6.95;2.47;;;;;;;;;;5003170;28;20097;-69
2022/05/21 12:31:44;;;;;;;6.93;2.22;;;;;;;;;;5002973;28;20053;-70
2022/05/21 12:34:12;;;;;;;5.70;2.08;;;;;;;;;;5005629;28;20537;-69
2022/05/21 12:36:43;;;;;;;4.60;1.88;;;;;;;;;;5004734;28;20030;-69
2022/05/21 12:39:13;;;;;;;7.15;2.20;;;;;;;;;;5002209;28;20049;-69
2022/05/21 12:41:43;;;;;;;7.88;1.98;;;;;;;;;;5003875;28;20108;-69
2022/05/21 12:44:09;;;;;;;6.18;1.92;;;;;;;;;;5003399;28;20432;-69
2022/05/21 12:46:35;;;;;;;8.38;2.45;;;;;;;;;;5006166;28;20071;-69
2022/05/21 12:49:11;;;;;;;14.35;2.33;;;;;;;;;;4997968;28;20305;-69
2022/05/21 12:51:40;;;;;;;5.60;2.20;;;;;;;;;;5002205;28;20045;-69
2022/05/21 12:54:18;;;;;;;5.28;2.03;;;;;;;;;;5004337;28;20037;-69
2022/05/21 12:56:44;;;;;;;6.20;2.17;;;;;;;;;;5004724;28;20037;-69
2022/05/21 12:59:19;;;;;;;9.02;2.13;;;;;;;;;;5000332;28;20083;-69
2022/05/21 13:02:16;;;;;;;4.72;1.95;;;;;;;;;;5015370;28;20432;-69
2022/05/21 13:04:45;;;;;;;8.43;2.47;;;;;;;;;;4991835;28;20050;-69
2022/05/21 13:07:29;;;;;;;9.50;2.20;;;;;;;;;;4997810;28;20096;-69
2022/05/21 13:10:03;;;;;;;7.07;2.38;;;;;;;;;;5002461;28;20124;-69
2022/05/21 13:12:50;;;;;;;4.78;2.28;;;;;;;;;;4999578;28;20068;-69
2022/05/21 13:15:25;;;;;;;5.80;1.77;;;;;;;;;;5001274;28;20041;-69
2022/05/21 13:18:08;;;;;;;5.25;1.80;;;;;;;;;;4999383;28;20064;-69
2022/05/21 13:20:44;;;;;;;6.82;1.90;;;;;;;;;;4999341;28;20030;-69
2022/05/21 13:23:29;;;;;;;5.70;1.85;;;;;;;;;;5003966;28;20566;-69
2022/05/21 13:25:55;;;;;;;6.75;1.98;;;;;;;;;;5000375;28;20100;-69
2022/05/21 13:28:24;;;;;;;7.90;2.22;;;;;;;;;;5000722;28;20707;-70
2022/05/21 13:30:51;;;;;;;3.28;1.83;;;;;;;;;;5001417;28;20641;-69
2022/05/21 13:33:43;;;;;;;6.22;1.83;;;;;;;;;;5002092;28;20042;-69
2022/05/21 13:36:13;;;;;;;5.60;2.13;;;;;;;;;;5000276;28;20069;-69
2022/05/21 13:38:40;;;;;;;3.53;1.80;;;;;;;;;;4996452;28;20033;-69
2022/05/21 13:41:10;;;;;;;8.77;2.40;;;;;;;;;;5006796;28;20037;-69
2022/05/21 13:43:42;;;;;;;9.88;2.75;;;;;;;;;;5006364;28;20045;-69
2022/05/21 13:46:08;;;;;;;4.95;1.55;;;;;;;;;;5003367;28;20038;-69
2022/05/21 13:48:45;;;;;;;6.00;1.60;;;;;;;;;;5006251;28;20057;-69
2022/05/21 13:51:17;;;;;;;5.65;1.65;;;;;;;;;;5004363;28;20038;-69
2022/05/21 13:53:45;;;;;;;8.10;1.80;;;;;;;;;;5002272;28;20026;-70
2022/05/21 13:56:33;;;;;;;5.93;2.40;;;;;;;;;;5003480;28;20040;-70
2022/05/21 13:59:13;;;;;;;5.22;2.17;;;;;;;;;;5006704;28;20050;-69
2022/05/21 14:01:42;;;;;;;3.92;1.67;;;;;;;;;;5000741;28;20498;-69
2022/05/21 14:04:39;;;;;;;5.38;1.75;;;;;;;;;;5004245;28;20050;-70
2022/05/21 14:07:21;;;;;;;5.65;1.85;;;;;;;;;;5005380;28;20541;-69
2022/05/21 14:09:49;;;;;;;4.05;1.40;;;;;;;;;;5019765;28;20084;-70
2022/05/21 14:12:47;;;;;;;6.38;1.58;;;;;;;;;;4997029;28;20045;-70
2022/05/21 14:15:44;;;;;;;5.05;1.60;;;;;;;;;;5000736;28;20049;-70
2022/05/21 14:18:09;;;;;;;5.30;1.30;;;;;;;;;;4997967;28;20042;-69
2022/05/21 14:20:37;;;;;;;4.63;1.65;;;;;;;;;;4996625;28;20079;-69
2022/05/21 14:23:32;;;;;;;5.38;1.88;;;;;;;;;;5003843;28;20021;-69
2022/05/21 14:26:09;;;;;;;3.70;1.38;;;;;;;;;;5003939;28;20050;-69
2022/05/21 14:28:35;;;;;;;7.55;1.50;;;;;;;;;;5006045;28;20057;-69
2022/05/21 14:31:27;;;;;;;6.82;1.60;;;;;;;;;;5006109;28;20052;-69
2022/05/21 14:33:59;;;;;;;6.07;1.92;;;;;;;;;;5002276;28;20129;-70
2022/05/21 14:36:33;;;;;;;4.53;1.52;;;;;;;;;;5003474;28;20046;-69
2022/05/21 14:38:58;;;;;;;3.75;1.60;;;;;;;;;;5005744;28;20038;-69
2022/05/21 14:41:37;;;;;;;5.05;1.40;;;;;;;;;;5005427;28;20087;-69
2022/05/21 14:44:05;;;;;;;7.10;1.60;;;;;;;;;;4995661;28;20570;-69
2022/05/21 14:49:15;;;;;;;6.05;1.70;;;;;;;;;;5004252;28;20125;-69
2022/05/21 14:54:38;;;;;;;5.03;1.40;;;;;;;;;;5004370;28;20099;-69
2022/05/21 14:57:04;;;;;;;4.40;1.63;;;;;;;;;;5006001;28;20125;-69
2022/05/21 14:59:29;;;;;;;5.75;1.63;;;;;;;;;;5002637;28;20034;-69
2022/05/21 15:01:55;;;;;;;4.93;1.73;;;;;;;;;;5005745;28;20103;-69
2022/05/21 15:04:21;;;;;;;4.43;1.70;;;;;;;;;;5006260;28;20054;-69
2022/05/21 15:06:47;;;;;;;3.80;1.20;;;;;;;;;;5006054;28;20035;-69
2022/05/21 15:09:12;;;;;;;4.55;1.70;;;;;;;;;;5006118;28;20137;-69
2022/05/21 15:11:38;;;;;;;4.32;1.50;;;;;;;;;;5006031;28;20104;-69
2022/05/21 15:14:04;;;;;;;5.03;1.75;;;;;;;;;;5006635;28;20113;-69
2022/05/21 15:16:29;;;;;;;7.20;1.50;;;;;;;;;;5005911;28;20534;-69
2022/05/21 15:18:54;;;;;;;4.32;1.80;;;;;;;;;;5004052;28;20050;-69
2022/05/21 15:21:24;;;;;;;4.78;1.40;;;;;;;;;;5004085;28;20046;-69
2022/05/21 15:23:49;;;;;;;5.53;1.33;;;;;;;;;;5004478;28;20120;-69
2022/05/21 15:26:15;;;;;;;7.70;2.08;;;;;;;;;;5001911;28;20120;-69
2022/05/21 15:28:41;;;;;;;4.97;1.48;;;;;;;;;;5005322;28;20100;-69
2022/05/21 15:31:07;;;;;;;1.63;1.30;;;;;;;;;;5005691;28;20104;-69
2022/05/21 15:33:33;;;;;;;4.25;1.50;;;;;;;;;;5005276;28;20034;-69
2022/05/21 15:35:58;;;;;;;7.60;1.80;;;;;;;;;;5005686;28;20030;-69
2022/05/21 15:38:24;;;;;;;4.05;1.40;;;;;;;;;;5008573;28;20463;-69
2022/05/21 15:40:50;;;;;;;7.25;1.80;;;;;;;;;;5009666;28;20049;-69
2022/05/21 15:43:17;;;;;;;6.30;1.23;;;;;;;;;;5006299;28;20610;-69